sensor_id;sensor_type;location;lat;lon;timestamp;P1;durP1;ratioP1;P2;durP2;ratioP2
23088;SDS011;11713;48.506;8.966;2023-04-25T00:01:32;4.47;;;3.23;;
23088;SDS011;11713;48.506;8.966;2023-04-25T00:04:02;6.20;;;4.50;;
23088;SDS011;11713;48.506;8.966;2023-04-25T00:06:31;23.47;;;15.13;;
23088;SDS011;11713;48.506;8.966;2023-04-25T00:08:57;17.20;;;11.50;;
23088;SDS011;11713;48.506;8.966;2023-04-25T00:11:23;11.00;;;8.57;;
23088;SDS011;11713;48.506;8.966;2023-04-25T00:13:49;8.00;;;5.70;;
23088;SDS011;11713;48.506;8.966;2023-04-25T00:16:19;5.27;;;3.83;;
23088;SDS011;11713;48.506;8.966;2023-04-25T00:18:45;4.77;;;3.67;;
23088;SDS011;11713;48.506;8.966;2023-04-25T00:21:16;3.30;;;3.00;;
23088;SDS011;11713;48.506;8.966;2023-04-25T00:23:43;3.77;;;3.30;;
23088;SDS011;11713;48.506;8.966;2023-04-25T00:26:10;6.13;;;3.17;;
23088;SDS011;11713;48.506;8.966;2023-04-25T00:28:37;5.50;;;3.50;;
23088;SDS011;11713;48.506;8.966;2023-04-25T00:31:03;5.27;;;3.63;;
23088;SDS011;11713;48.506;8.966;2023-04-25T00:33:29;3.87;;;3.37;;
23088;SDS011;11713;48.506;8.966;2023-04-25T00:35:55;4.33;;;3.33;;
23088;SDS011;11713;48.506;8.966;2023-04-25T00:38:21;4.57;;;3.50;;
23088;SDS011;11713;48.506;8.966;2023-04-25T00:40:47;4.40;;;2.80;;
23088;SDS011;11713;48.506;8.966;2023-04-25T00:43:13;4.03;;;3.07;;
23088;SDS011;11713;48.506;8.966;2023-04-25T00:45:39;3.77;;;3.40;;
23088;SDS011;11713;48.506;8.966;2023-04-25T00:48:05;5.73;;;4.07;;
23088;SDS011;11713;48.506;8.966;2023-04-25T00:50:35;4.47;;;3.43;;
23088;SDS011;11713;48.506;8.966;2023-04-25T00:53:01;4.97;;;3.60;;
23088;SDS011;11713;48.506;8.966;2023-04-25T00:55:28;4.27;;;3.47;;
23088;SDS011;11713;48.506;8.966;2023-04-25T00:57:56;3.83;;;3.47;;
23088;SDS011;11713;48.506;8.966;2023-04-25T01:00:22;3.80;;;3.40;;
23088;SDS011;11713;48.506;8.966;2023-04-25T01:02:49;7.63;;;3.40;;
23088;SDS011;11713;48.506;8.966;2023-04-25T01:05:15;3.83;;;3.10;;
23088;SDS011;11713;48.506;8.966;2023-04-25T01:07:41;3.43;;;3.03;;
23088;SDS011;11713;48.506;8.966;2023-04-25T01:10:07;3.70;;;2.83;;
23088;SDS011;11713;48.506;8.966;2023-04-25T01:12:33;3.50;;;3.20;;
23088;SDS011;11713;48.506;8.966;2023-04-25T01:14:59;3.67;;;3.10;;
23088;SDS011;11713;48.506;8.966;2023-04-25T01:17:25;5.37;;;3.67;;
23088;SDS011;11713;48.506;8.966;2023-04-25T01:19:52;3.90;;;2.93;;
23088;SDS011;11713;48.506;8.966;2023-04-25T01:22:18;5.83;;;3.73;;
23088;SDS011;11713;48.506;8.966;2023-04-25T01:24:45;4.10;;;3.70;;
23088;SDS011;11713;48.506;8.966;2023-04-25T01:27:11;5.47;;;3.60;;
23088;SDS011;11713;48.506;8.966;2023-04-25T01:29:37;5.87;;;3.70;;
23088;SDS011;11713;48.506;8.966;2023-04-25T01:32:04;5.13;;;3.27;;
23088;SDS011;11713;48.506;8.966;2023-04-25T01:34:32;3.87;;;3.00;;
23088;SDS011;11713;48.506;8.966;2023-04-25T01:36:59;5.70;;;3.70;;
23088;SDS011;11713;48.506;8.966;2023-04-25T01:39:27;3.80;;;3.30;;
23088;SDS011;11713;48.506;8.966;2023-04-25T01:41:53;3.77;;;3.20;;
23088;SDS011;11713;48.506;8.966;2023-04-25T01:44:20;6.37;;;3.13;;
23088;SDS011;11713;48.506;8.966;2023-04-25T01:46:47;5.13;;;2.90;;
23088;SDS011;11713;48.506;8.966;2023-04-25T01:49:12;3.43;;;2.70;;
23088;SDS011;11713;48.506;8.966;2023-04-25T01:51:40;4.33;;;3.70;;
23088;SDS011;11713;48.506;8.966;2023-04-25T01:54:06;3.57;;;2.80;;
23088;SDS011;11713;48.506;8.966;2023-04-25T01:56:36;4.20;;;2.80;;
23088;SDS011;11713;48.506;8.966;2023-04-25T01:59:03;3.23;;;2.80;;
23088;SDS011;11713;48.506;8.966;2023-04-25T02:01:45;4.57;;;3.20;;
23088;SDS011;11713;48.506;8.966;2023-04-25T02:04:19;4.07;;;3.00;;
23088;SDS011;11713;48.506;8.966;2023-04-25T02:06:45;3.50;;;2.87;;
23088;SDS011;11713;48.506;8.966;2023-04-25T02:09:11;4.67;;;3.00;;
23088;SDS011;11713;48.506;8.966;2023-04-25T02:11:42;3.93;;;3.37;;
23088;SDS011;11713;48.506;8.966;2023-04-25T02:14:22;3.97;;;3.50;;
23088;SDS011;11713;48.506;8.966;2023-04-25T02:17:14;5.13;;;3.37;;
23088;SDS011;11713;48.506;8.966;2023-04-25T02:19:41;3.73;;;3.20;;
23088;SDS011;11713;48.506;8.966;2023-04-25T02:22:06;3.93;;;2.90;;
23088;SDS011;11713;48.506;8.966;2023-04-25T02:24:32;5.10;;;3.10;;
23088;SDS011;11713;48.506;8.966;2023-04-25T02:27:00;4.63;;;3.20;;
23088;SDS011;11713;48.506;8.966;2023-04-25T02:29:25;4.57;;;2.87;;
23088;SDS011;11713;48.506;8.966;2023-04-25T02:31:51;4.50;;;3.37;;
23088;SDS011;11713;48.506;8.966;2023-04-25T02:34:17;4.17;;;3.37;;
23088;SDS011;11713;48.506;8.966;2023-04-25T02:36:43;6.83;;;3.90;;
23088;SDS011;11713;48.506;8.966;2023-04-25T02:39:09;5.57;;;4.10;;
23088;SDS011;11713;48.506;8.966;2023-04-25T02:41:35;4.30;;;3.10;;
23088;SDS011;11713;48.506;8.966;2023-04-25T02:44:01;4.47;;;3.53;;
23088;SDS011;11713;48.506;8.966;2023-04-25T02:46:27;4.00;;;2.90;;
23088;SDS011;11713;48.506;8.966;2023-04-25T02:48:52;5.10;;;3.27;;
23088;SDS011;11713;48.506;8.966;2023-04-25T02:51:18;3.63;;;3.10;;
23088;SDS011;11713;48.506;8.966;2023-04-25T02:53:44;4.57;;;3.30;;
23088;SDS011;11713;48.506;8.966;2023-04-25T02:56:10;4.50;;;3.40;;
23088;SDS011;11713;48.506;8.966;2023-04-25T02:58:36;5.00;;;3.77;;
23088;SDS011;11713;48.506;8.966;2023-04-25T03:01:01;5.40;;;3.37;;
23088;SDS011;11713;48.506;8.966;2023-04-25T03:03:27;3.50;;;3.20;;
23088;SDS011;11713;48.506;8.966;2023-04-25T03:05:53;4.10;;;3.20;;
23088;SDS011;11713;48.506;8.966;2023-04-25T03:08:25;4.73;;;3.30;;
23088;SDS011;11713;48.506;8.966;2023-04-25T03:10:56;4.93;;;3.60;;
23088;SDS011;11713;48.506;8.966;2023-04-25T03:13:23;5.83;;;3.93;;
23088;SDS011;11713;48.506;8.966;2023-04-25T03:15:49;6.27;;;4.30;;
23088;SDS011;11713;48.506;8.966;2023-04-25T03:18:17;6.03;;;4.37;;
23088;SDS011;11713;48.506;8.966;2023-04-25T03:20:43;5.37;;;3.57;;
23088;SDS011;11713;48.506;8.966;2023-04-25T03:23:09;4.73;;;3.70;;
23088;SDS011;11713;48.506;8.966;2023-04-25T03:25:35;5.27;;;3.47;;
23088;SDS011;11713;48.506;8.966;2023-04-25T03:28:03;3.67;;;3.20;;
23088;SDS011;11713;48.506;8.966;2023-04-25T03:30:29;3.80;;;3.37;;
23088;SDS011;11713;48.506;8.966;2023-04-25T03:32:55;3.43;;;2.73;;
23088;SDS011;11713;48.506;8.966;2023-04-25T03:35:21;4.20;;;3.27;;
23088;SDS011;11713;48.506;8.966;2023-04-25T03:37:49;4.03;;;2.97;;
23088;SDS011;11713;48.506;8.966;2023-04-25T03:40:20;3.90;;;3.50;;
23088;SDS011;11713;48.506;8.966;2023-04-25T03:43:17;3.33;;;2.50;;
23088;SDS011;11713;48.506;8.966;2023-04-25T03:45:55;4.60;;;2.80;;
23088;SDS011;11713;48.506;8.966;2023-04-25T03:48:36;3.87;;;2.20;;
23088;SDS011;11713;48.506;8.966;2023-04-25T03:51:09;2.97;;;2.40;;
23088;SDS011;11713;48.506;8.966;2023-04-25T03:53:43;3.67;;;2.27;;
23088;SDS011;11713;48.506;8.966;2023-04-25T03:56:36;3.60;;;2.70;;
23088;SDS011;11713;48.506;8.966;2023-04-25T03:59:12;3.13;;;2.70;;
23088;SDS011;11713;48.506;8.966;2023-04-25T04:01:38;3.07;;;2.33;;
23088;SDS011;11713;48.506;8.966;2023-04-25T04:04:04;3.47;;;2.50;;
23088;SDS011;11713;48.506;8.966;2023-04-25T04:06:31;2.90;;;2.60;;
23088;SDS011;11713;48.506;8.966;2023-04-25T04:09:04;3.90;;;2.67;;
23088;SDS011;11713;48.506;8.966;2023-04-25T04:11:34;3.63;;;2.80;;
23088;SDS011;11713;48.506;8.966;2023-04-25T04:14:02;3.53;;;2.40;;
23088;SDS011;11713;48.506;8.966;2023-04-25T04:16:28;3.50;;;2.70;;
23088;SDS011;11713;48.506;8.966;2023-04-25T04:18:53;9.87;;;2.83;;
23088;SDS011;11713;48.506;8.966;2023-04-25T04:21:19;3.13;;;2.57;;
23088;SDS011;11713;48.506;8.966;2023-04-25T04:23:45;5.43;;;3.20;;
23088;SDS011;11713;48.506;8.966;2023-04-25T04:26:11;4.93;;;3.00;;
23088;SDS011;11713;48.506;8.966;2023-04-25T04:28:41;4.97;;;3.90;;
23088;SDS011;11713;48.506;8.966;2023-04-25T04:31:17;5.17;;;2.77;;
23088;SDS011;11713;48.506;8.966;2023-04-25T04:33:45;4.37;;;2.70;;
23088;SDS011;11713;48.506;8.966;2023-04-25T04:36:13;2.80;;;2.50;;
23088;SDS011;11713;48.506;8.966;2023-04-25T04:38:39;3.50;;;2.83;;
23088;SDS011;11713;48.506;8.966;2023-04-25T04:41:07;4.40;;;2.97;;
23088;SDS011;11713;48.506;8.966;2023-04-25T04:43:45;5.80;;;2.80;;
23088;SDS011;11713;48.506;8.966;2023-04-25T04:46:29;3.83;;;2.70;;
23088;SDS011;11713;48.506;8.966;2023-04-25T04:49:12;4.67;;;3.00;;
23088;SDS011;11713;48.506;8.966;2023-04-25T04:52:08;6.87;;;3.73;;
23088;SDS011;11713;48.506;8.966;2023-04-25T04:55:10;6.07;;;3.33;;
23088;SDS011;11713;48.506;8.966;2023-04-25T04:58:03;5.67;;;2.90;;
23088;SDS011;11713;48.506;8.966;2023-04-25T05:00:37;3.13;;;2.83;;
23088;SDS011;11713;48.506;8.966;2023-04-25T05:03:18;4.17;;;3.00;;
23088;SDS011;11713;48.506;8.966;2023-04-25T05:06:02;3.87;;;2.97;;
23088;SDS011;11713;48.506;8.966;2023-04-25T05:08:37;7.27;;;3.30;;
23088;SDS011;11713;48.506;8.966;2023-04-25T05:11:22;5.80;;;3.50;;
23088;SDS011;11713;48.506;8.966;2023-04-25T05:14:07;3.63;;;3.03;;
23088;SDS011;11713;48.506;8.966;2023-04-25T05:16:43;7.00;;;3.63;;
23088;SDS011;11713;48.506;8.966;2023-04-25T05:19:29;4.23;;;3.57;;
23088;SDS011;11713;48.506;8.966;2023-04-25T05:22:22;5.83;;;3.50;;
23088;SDS011;11713;48.506;8.966;2023-04-25T05:25:06;4.83;;;3.47;;
23088;SDS011;11713;48.506;8.966;2023-04-25T05:27:50;4.37;;;3.20;;
23088;SDS011;11713;48.506;8.966;2023-04-25T05:30:36;5.13;;;3.10;;
23088;SDS011;11713;48.506;8.966;2023-04-25T05:33:08;3.30;;;2.83;;
23088;SDS011;11713;48.506;8.966;2023-04-25T05:35:34;5.57;;;3.20;;
23088;SDS011;11713;48.506;8.966;2023-04-25T05:38:00;4.33;;;3.40;;
23088;SDS011;11713;48.506;8.966;2023-04-25T05:40:45;3.50;;;2.83;;
23088;SDS011;11713;48.506;8.966;2023-04-25T05:43:19;5.63;;;2.87;;
23088;SDS011;11713;48.506;8.966;2023-04-25T05:45:58;3.40;;;2.67;;
23088;SDS011;11713;48.506;8.966;2023-04-25T05:48:51;4.80;;;3.10;;
23088;SDS011;11713;48.506;8.966;2023-04-25T05:51:39;3.83;;;2.70;;
23088;SDS011;11713;48.506;8.966;2023-04-25T05:54:25;4.10;;;2.90;;
23088;SDS011;11713;48.506;8.966;2023-04-25T05:56:53;4.53;;;2.93;;
23088;SDS011;11713;48.506;8.966;2023-04-25T05:59:18;4.53;;;2.87;;
23088;SDS011;11713;48.506;8.966;2023-04-25T06:01:45;6.30;;;2.70;;
23088;SDS011;11713;48.506;8.966;2023-04-25T06:04:12;2.40;;;2.20;;
23088;SDS011;11713;48.506;8.966;2023-04-25T06:06:38;2.90;;;2.33;;
23088;SDS011;11713;48.506;8.966;2023-04-25T06:09:03;2.17;;;1.97;;
23088;SDS011;11713;48.506;8.966;2023-04-25T06:11:30;2.17;;;1.97;;
23088;SDS011;11713;48.506;8.966;2023-04-25T06:13:56;3.03;;;2.20;;
23088;SDS011;11713;48.506;8.966;2023-04-25T06:16:22;3.03;;;2.30;;
23088;SDS011;11713;48.506;8.966;2023-04-25T06:18:51;3.67;;;2.30;;
23088;SDS011;11713;48.506;8.966;2023-04-25T06:21:17;3.17;;;2.20;;
23088;SDS011;11713;48.506;8.966;2023-04-25T06:23:42;3.33;;;2.17;;
23088;SDS011;11713;48.506;8.966;2023-04-25T06:26:11;3.07;;;2.23;;
23088;SDS011;11713;48.506;8.966;2023-04-25T06:28:43;6.70;;;4.47;;
23088;SDS011;11713;48.506;8.966;2023-04-25T06:31:10;3.53;;;2.67;;
23088;SDS011;11713;48.506;8.966;2023-04-25T06:33:36;4.30;;;3.10;;
23088;SDS011;11713;48.506;8.966;2023-04-25T06:36:02;3.07;;;2.20;;
23088;SDS011;11713;48.506;8.966;2023-04-25T06:38:29;3.67;;;1.90;;
23088;SDS011;11713;48.506;8.966;2023-04-25T06:40:56;5.07;;;2.97;;
23088;SDS011;11713;48.506;8.966;2023-04-25T06:43:23;3.07;;;2.33;;
23088;SDS011;11713;48.506;8.966;2023-04-25T06:45:49;3.67;;;2.33;;
23088;SDS011;11713;48.506;8.966;2023-04-25T06:48:15;4.30;;;2.20;;
23088;SDS011;11713;48.506;8.966;2023-04-25T06:50:41;2.60;;;2.17;;
23088;SDS011;11713;48.506;8.966;2023-04-25T06:53:07;3.73;;;2.30;;
23088;SDS011;11713;48.506;8.966;2023-04-25T06:55:35;3.03;;;2.73;;
23088;SDS011;11713;48.506;8.966;2023-04-25T06:58:19;9.93;;;5.77;;
23088;SDS011;11713;48.506;8.966;2023-04-25T07:01:01;6.37;;;3.50;;
23088;SDS011;11713;48.506;8.966;2023-04-25T07:03:27;8.37;;;4.30;;
23088;SDS011;11713;48.506;8.966;2023-04-25T07:06:00;15.90;;;6.70;;
23088;SDS011;11713;48.506;8.966;2023-04-25T07:08:28;10.23;;;5.10;;
23088;SDS011;11713;48.506;8.966;2023-04-25T07:10:57;49.23;;;15.27;;
23088;SDS011;11713;48.506;8.966;2023-04-25T07:13:23;47.70;;;17.23;;
23088;SDS011;11713;48.506;8.966;2023-04-25T07:15:49;13.30;;;6.07;;
23088;SDS011;11713;48.506;8.966;2023-04-25T07:18:18;5.50;;;3.53;;
23088;SDS011;11713;48.506;8.966;2023-04-25T07:20:44;5.97;;;3.13;;
23088;SDS011;11713;48.506;8.966;2023-04-25T07:23:10;3.73;;;2.90;;
23088;SDS011;11713;48.506;8.966;2023-04-25T07:25:36;3.97;;;2.70;;
23088;SDS011;11713;48.506;8.966;2023-04-25T07:28:02;3.20;;;2.40;;
23088;SDS011;11713;48.506;8.966;2023-04-25T07:30:28;2.60;;;2.40;;
23088;SDS011;11713;48.506;8.966;2023-04-25T07:32:54;2.60;;;2.00;;
23088;SDS011;11713;48.506;8.966;2023-04-25T07:35:20;2.60;;;2.10;;
23088;SDS011;11713;48.506;8.966;2023-04-25T07:37:46;4.93;;;2.30;;
23088;SDS011;11713;48.506;8.966;2023-04-25T07:40:16;2.73;;;2.20;;
23088;SDS011;11713;48.506;8.966;2023-04-25T07:42:56;2.87;;;2.30;;
23088;SDS011;11713;48.506;8.966;2023-04-25T07:45:28;3.47;;;2.20;;
23088;SDS011;11713;48.506;8.966;2023-04-25T07:47:55;5.10;;;2.30;;
23088;SDS011;11713;48.506;8.966;2023-04-25T07:50:21;3.60;;;2.20;;
23088;SDS011;11713;48.506;8.966;2023-04-25T07:52:46;3.63;;;2.30;;
23088;SDS011;11713;48.506;8.966;2023-04-25T07:55:22;3.60;;;2.27;;
23088;SDS011;11713;48.506;8.966;2023-04-25T07:58:08;3.20;;;2.23;;
23088;SDS011;11713;48.506;8.966;2023-04-25T08:00:37;2.43;;;2.23;;
23088;SDS011;11713;48.506;8.966;2023-04-25T08:03:36;2.40;;;2.17;;
23088;SDS011;11713;48.506;8.966;2023-04-25T08:06:07;3.67;;;2.50;;
23088;SDS011;11713;48.506;8.966;2023-04-25T08:08:39;3.67;;;2.30;;
23088;SDS011;11713;48.506;8.966;2023-04-25T08:11:06;4.87;;;2.80;;
23088;SDS011;11713;48.506;8.966;2023-04-25T08:13:32;4.13;;;2.90;;
23088;SDS011;11713;48.506;8.966;2023-04-25T08:15:58;8.27;;;3.13;;
23088;SDS011;11713;48.506;8.966;2023-04-25T08:18:24;6.30;;;3.70;;
23088;SDS011;11713;48.506;8.966;2023-04-25T08:20:51;3.97;;;3.17;;
23088;SDS011;11713;48.506;8.966;2023-04-25T08:23:17;4.10;;;2.90;;
23088;SDS011;11713;48.506;8.966;2023-04-25T08:25:50;3.00;;;2.47;;
23088;SDS011;11713;48.506;8.966;2023-04-25T08:28:19;6.53;;;2.93;;
23088;SDS011;11713;48.506;8.966;2023-04-25T08:30:46;2.10;;;1.90;;
23088;SDS011;11713;48.506;8.966;2023-04-25T08:33:14;3.67;;;2.80;;
23088;SDS011;11713;48.506;8.966;2023-04-25T08:35:58;3.73;;;3.07;;
23088;SDS011;11713;48.506;8.966;2023-04-25T08:38:26;3.67;;;3.07;;
23088;SDS011;11713;48.506;8.966;2023-04-25T08:40:52;3.80;;;2.90;;
23088;SDS011;11713;48.506;8.966;2023-04-25T08:43:21;3.73;;;3.37;;
23088;SDS011;11713;48.506;8.966;2023-04-25T08:45:50;4.03;;;3.53;;
23088;SDS011;11713;48.506;8.966;2023-04-25T08:48:44;6.47;;;3.37;;
23088;SDS011;11713;48.506;8.966;2023-04-25T08:51:15;4.33;;;3.93;;
23088;SDS011;11713;48.506;8.966;2023-04-25T08:53:49;5.43;;;4.13;;
23088;SDS011;11713;48.506;8.966;2023-04-25T08:56:17;4.53;;;3.47;;
23088;SDS011;11713;48.506;8.966;2023-04-25T08:58:47;4.63;;;3.87;;
23088;SDS011;11713;48.506;8.966;2023-04-25T09:01:15;4.23;;;3.83;;
23088;SDS011;11713;48.506;8.966;2023-04-25T09:03:47;4.47;;;4.00;;
23088;SDS011;11713;48.506;8.966;2023-04-25T09:06:13;5.00;;;3.40;;
23088;SDS011;11713;48.506;8.966;2023-04-25T09:08:41;4.73;;;3.47;;
23088;SDS011;11713;48.506;8.966;2023-04-25T09:11:07;3.80;;;3.30;;
23088;SDS011;11713;48.506;8.966;2023-04-25T09:13:33;3.33;;;2.83;;
23088;SDS011;11713;48.506;8.966;2023-04-25T09:16:17;2.67;;;2.40;;
23088;SDS011;11713;48.506;8.966;2023-04-25T09:19:21;3.73;;;2.70;;
23088;SDS011;11713;48.506;8.966;2023-04-25T09:22:10;3.13;;;2.83;;
23088;SDS011;11713;48.506;8.966;2023-04-25T09:24:37;3.87;;;2.93;;
23088;SDS011;11713;48.506;8.966;2023-04-25T09:27:07;3.30;;;3.00;;
23088;SDS011;11713;48.506;8.966;2023-04-25T09:29:36;3.73;;;2.73;;
23088;SDS011;11713;48.506;8.966;2023-04-25T09:34:42;4.37;;;2.57;;
23088;SDS011;11713;48.506;8.966;2023-04-25T09:37:12;2.57;;;2.30;;
23088;SDS011;11713;48.506;8.966;2023-04-25T09:40:03;2.30;;;2.10;;
23088;SDS011;11713;48.506;8.966;2023-04-25T09:42:33;1.87;;;1.63;;
23088;SDS011;11713;48.506;8.966;2023-04-25T09:45:00;1.40;;;1.30;;
23088;SDS011;11713;48.506;8.966;2023-04-25T09:47:29;1.50;;;1.40;;
23088;SDS011;11713;48.506;8.966;2023-04-25T09:49:56;1.10;;;1.00;;
23088;SDS011;11713;48.506;8.966;2023-04-25T09:52:22;0.90;;;0.90;;
23088;SDS011;11713;48.506;8.966;2023-04-25T09:54:59;2.80;;;1.00;;
23088;SDS011;11713;48.506;8.966;2023-04-25T09:57:31;1.13;;;1.03;;
23088;SDS011;11713;48.506;8.966;2023-04-25T09:59:57;1.00;;;0.90;;
23088;SDS011;11713;48.506;8.966;2023-04-25T10:02:29;1.27;;;1.17;;
23088;SDS011;11713;48.506;8.966;2023-04-25T10:05:05;1.90;;;1.40;;
23088;SDS011;11713;48.506;8.966;2023-04-25T10:07:37;2.13;;;1.50;;
23088;SDS011;11713;48.506;8.966;2023-04-25T10:10:07;1.20;;;1.10;;
23088;SDS011;11713;48.506;8.966;2023-04-25T10:12:35;0.70;;;0.70;;
23088;SDS011;11713;48.506;8.966;2023-04-25T10:15:02;0.83;;;0.83;;
23088;SDS011;11713;48.506;8.966;2023-04-25T10:17:29;3.90;;;0.77;;
23088;SDS011;11713;48.506;8.966;2023-04-25T10:19:56;0.60;;;0.60;;
23088;SDS011;11713;48.506;8.966;2023-04-25T10:22:29;0.50;;;0.50;;
23088;SDS011;11713;48.506;8.966;2023-04-25T10:24:59;0.80;;;0.80;;
23088;SDS011;11713;48.506;8.966;2023-04-25T10:27:29;1.73;;;1.23;;
23088;SDS011;11713;48.506;8.966;2023-04-25T10:30:03;1.10;;;1.00;;
23088;SDS011;11713;48.506;8.966;2023-04-25T10:32:31;0.90;;;0.90;;
23088;SDS011;11713;48.506;8.966;2023-04-25T10:35:10;0.80;;;0.80;;
23088;SDS011;11713;48.506;8.966;2023-04-25T10:37:36;0.63;;;0.63;;
23088;SDS011;11713;48.506;8.966;2023-04-25T10:40:09;0.70;;;0.63;;
23088;SDS011;11713;48.506;8.966;2023-04-25T10:42:35;1.20;;;1.10;;
23088;SDS011;11713;48.506;8.966;2023-04-25T10:45:02;4.40;;;1.40;;
23088;SDS011;11713;48.506;8.966;2023-04-25T10:47:36;2.50;;;1.90;;
23088;SDS011;11713;48.506;8.966;2023-04-25T10:50:10;2.80;;;1.30;;
23088;SDS011;11713;48.506;8.966;2023-04-25T10:52:39;0.70;;;0.70;;
23088;SDS011;11713;48.506;8.966;2023-04-25T10:55:07;1.47;;;1.30;;
23088;SDS011;11713;48.506;8.966;2023-04-25T10:57:38;1.37;;;1.17;;
23088;SDS011;11713;48.506;8.966;2023-04-25T11:00:16;2.13;;;1.53;;
23088;SDS011;11713;48.506;8.966;2023-04-25T11:02:51;1.40;;;1.00;;
23088;SDS011;11713;48.506;8.966;2023-04-25T11:05:34;1.33;;;0.90;;
23088;SDS011;11713;48.506;8.966;2023-04-25T11:08:01;1.20;;;1.10;;
23088;SDS011;11713;48.506;8.966;2023-04-25T11:10:31;1.10;;;1.00;;
23088;SDS011;11713;48.506;8.966;2023-04-25T11:13:00;1.30;;;1.20;;
23088;SDS011;11713;48.506;8.966;2023-04-25T11:15:26;1.70;;;1.60;;
23088;SDS011;11713;48.506;8.966;2023-04-25T11:17:53;2.47;;;1.90;;
23088;SDS011;11713;48.506;8.966;2023-04-25T11:20:19;1.60;;;1.50;;
23088;SDS011;11713;48.506;8.966;2023-04-25T11:22:46;2.57;;;1.50;;
23088;SDS011;11713;48.506;8.966;2023-04-25T11:25:13;1.20;;;1.10;;
23088;SDS011;11713;48.506;8.966;2023-04-25T11:27:50;1.30;;;1.00;;
23088;SDS011;11713;48.506;8.966;2023-04-25T11:30:16;2.73;;;1.40;;
23088;SDS011;11713;48.506;8.966;2023-04-25T11:32:43;1.47;;;1.30;;
23088;SDS011;11713;48.506;8.966;2023-04-25T11:35:09;1.00;;;1.00;;
23088;SDS011;11713;48.506;8.966;2023-04-25T11:37:36;1.00;;;0.90;;
23088;SDS011;11713;48.506;8.966;2023-04-25T11:40:04;1.10;;;1.00;;
23088;SDS011;11713;48.506;8.966;2023-04-25T11:42:37;1.33;;;1.00;;
23088;SDS011;11713;48.506;8.966;2023-04-25T11:45:05;1.40;;;1.30;;
23088;SDS011;11713;48.506;8.966;2023-04-25T11:47:32;2.73;;;1.67;;
23088;SDS011;11713;48.506;8.966;2023-04-25T11:49:59;1.23;;;1.13;;
23088;SDS011;11713;48.506;8.966;2023-04-25T11:52:45;1.53;;;1.10;;
23088;SDS011;11713;48.506;8.966;2023-04-25T11:55:17;1.30;;;1.10;;
23088;SDS011;11713;48.506;8.966;2023-04-25T11:57:46;1.17;;;1.07;;
23088;SDS011;11713;48.506;8.966;2023-04-25T12:00:16;1.10;;;1.00;;
23088;SDS011;11713;48.506;8.966;2023-04-25T12:02:47;1.57;;;1.30;;
23088;SDS011;11713;48.506;8.966;2023-04-25T12:05:18;1.37;;;1.00;;
23088;SDS011;11713;48.506;8.966;2023-04-25T12:07:46;1.73;;;1.20;;
23088;SDS011;11713;48.506;8.966;2023-04-25T12:10:14;1.33;;;0.83;;
23088;SDS011;11713;48.506;8.966;2023-04-25T12:12:42;1.33;;;1.03;;
23088;SDS011;11713;48.506;8.966;2023-04-25T12:15:14;6.93;;;1.63;;
23088;SDS011;11713;48.506;8.966;2023-04-25T12:17:51;2.33;;;1.70;;
23088;SDS011;11713;48.506;8.966;2023-04-25T12:20:19;2.63;;;1.13;;
23088;SDS011;11713;48.506;8.966;2023-04-25T12:22:49;2.10;;;1.50;;
23088;SDS011;11713;48.506;8.966;2023-04-25T12:33:33;1.00;;;1.00;;
23088;SDS011;11713;48.506;8.966;2023-04-25T12:36:01;0.97;;;0.97;;
23088;SDS011;11713;48.506;8.966;2023-04-25T12:38:35;0.80;;;0.80;;
23088;SDS011;11713;48.506;8.966;2023-04-25T12:41:02;0.90;;;0.90;;
23088;SDS011;11713;48.506;8.966;2023-04-25T12:43:27;0.80;;;0.80;;
23088;SDS011;11713;48.506;8.966;2023-04-25T12:45:54;1.13;;;1.00;;
23088;SDS011;11713;48.506;8.966;2023-04-25T12:48:21;0.93;;;0.93;;
23088;SDS011;11713;48.506;8.966;2023-04-25T12:50:47;1.00;;;0.93;;
23088;SDS011;11713;48.506;8.966;2023-04-25T12:53:14;1.30;;;1.00;;
23088;SDS011;11713;48.506;8.966;2023-04-25T12:55:41;1.20;;;1.10;;
23088;SDS011;11713;48.506;8.966;2023-04-25T12:58:07;1.23;;;1.13;;
23088;SDS011;11713;48.506;8.966;2023-04-25T13:00:33;1.30;;;1.20;;
23088;SDS011;11713;48.506;8.966;2023-04-25T13:02:58;3.00;;;1.40;;
23088;SDS011;11713;48.506;8.966;2023-04-25T13:05:24;1.43;;;1.33;;
23088;SDS011;11713;48.506;8.966;2023-04-25T13:07:50;1.87;;;1.30;;
23088;SDS011;11713;48.506;8.966;2023-04-25T13:10:16;1.40;;;1.30;;
23088;SDS011;11713;48.506;8.966;2023-04-25T13:12:43;1.50;;;1.40;;
23088;SDS011;11713;48.506;8.966;2023-04-25T13:15:09;1.50;;;1.40;;
23088;SDS011;11713;48.506;8.966;2023-04-25T13:17:37;2.30;;;1.63;;
23088;SDS011;11713;48.506;8.966;2023-04-25T13:20:04;1.63;;;1.53;;
23088;SDS011;11713;48.506;8.966;2023-04-25T13:22:34;2.00;;;1.80;;
23088;SDS011;11713;48.506;8.966;2023-04-25T13:25:02;1.70;;;1.60;;
23088;SDS011;11713;48.506;8.966;2023-04-25T13:27:29;1.80;;;1.70;;
23088;SDS011;11713;48.506;8.966;2023-04-25T13:29:57;2.00;;;1.80;;
23088;SDS011;11713;48.506;8.966;2023-04-25T13:32:23;2.00;;;1.90;;
23088;SDS011;11713;48.506;8.966;2023-04-25T13:34:50;2.10;;;1.70;;
23088;SDS011;11713;48.506;8.966;2023-04-25T13:37:16;1.87;;;1.77;;
23088;SDS011;11713;48.506;8.966;2023-04-25T13:39:42;2.33;;;2.00;;
23088;SDS011;11713;48.506;8.966;2023-04-25T13:42:08;3.03;;;2.00;;
23088;SDS011;11713;48.506;8.966;2023-04-25T13:44:34;2.13;;;2.00;;
23088;SDS011;11713;48.506;8.966;2023-04-25T13:46:59;2.47;;;2.27;;
23088;SDS011;11713;48.506;8.966;2023-04-25T13:49:26;3.23;;;2.93;;
23088;SDS011;11713;48.506;8.966;2023-04-25T13:51:52;3.50;;;3.20;;
23088;SDS011;11713;48.506;8.966;2023-04-25T13:54:17;3.83;;;2.70;;
23088;SDS011;11713;48.506;8.966;2023-04-25T13:56:43;4.23;;;2.93;;
23088;SDS011;11713;48.506;8.966;2023-04-25T13:59:09;3.23;;;2.90;;
23088;SDS011;11713;48.506;8.966;2023-04-25T14:01:35;3.23;;;2.73;;
23088;SDS011;11713;48.506;8.966;2023-04-25T14:04:02;3.40;;;3.10;;
23088;SDS011;11713;48.506;8.966;2023-04-25T14:06:29;4.07;;;2.67;;
23088;SDS011;11713;48.506;8.966;2023-04-25T14:08:55;3.20;;;2.90;;
23088;SDS011;11713;48.506;8.966;2023-04-25T14:11:21;3.57;;;3.13;;
23088;SDS011;11713;48.506;8.966;2023-04-25T14:13:47;3.40;;;2.63;;
23088;SDS011;11713;48.506;8.966;2023-04-25T14:16:14;3.23;;;2.93;;
23088;SDS011;11713;48.506;8.966;2023-04-25T14:18:41;3.27;;;2.87;;
23088;SDS011;11713;48.506;8.966;2023-04-25T14:21:06;2.90;;;2.67;;
23088;SDS011;11713;48.506;8.966;2023-04-25T14:23:33;3.67;;;3.10;;
23088;SDS011;11713;48.506;8.966;2023-04-25T14:25:58;3.07;;;2.73;;
23088;SDS011;11713;48.506;8.966;2023-04-25T14:28:24;2.83;;;2.57;;
23088;SDS011;11713;48.506;8.966;2023-04-25T14:30:50;3.23;;;2.60;;
23088;SDS011;11713;48.506;8.966;2023-04-25T14:33:16;3.53;;;3.23;;
23088;SDS011;11713;48.506;8.966;2023-04-25T14:35:42;4.40;;;3.07;;
23088;SDS011;11713;48.506;8.966;2023-04-25T14:38:08;3.20;;;2.60;;
23088;SDS011;11713;48.506;8.966;2023-04-25T14:40:33;3.27;;;2.97;;
23088;SDS011;11713;48.506;8.966;2023-04-25T14:42:59;2.80;;;2.47;;
23088;SDS011;11713;48.506;8.966;2023-04-25T14:45:25;2.73;;;2.53;;
23088;SDS011;11713;48.506;8.966;2023-04-25T14:47:51;3.00;;;2.53;;
23088;SDS011;11713;48.506;8.966;2023-04-25T14:50:17;2.60;;;2.37;;
23088;SDS011;11713;48.506;8.966;2023-04-25T14:52:43;3.03;;;2.73;;
23088;SDS011;11713;48.506;8.966;2023-04-25T14:55:10;3.27;;;2.97;;
23088;SDS011;11713;48.506;8.966;2023-04-25T14:57:36;3.30;;;2.90;;
23088;SDS011;11713;48.506;8.966;2023-04-25T15:00:03;3.37;;;3.07;;
23088;SDS011;11713;48.506;8.966;2023-04-25T15:02:32;3.10;;;2.80;;
23088;SDS011;11713;48.506;8.966;2023-04-25T15:04:57;3.20;;;2.90;;
23088;SDS011;11713;48.506;8.966;2023-04-25T15:07:23;4.43;;;3.10;;
23088;SDS011;11713;48.506;8.966;2023-04-25T15:09:49;3.23;;;2.60;;
23088;SDS011;11713;48.506;8.966;2023-04-25T15:12:15;2.93;;;2.40;;
23088;SDS011;11713;48.506;8.966;2023-04-25T15:14:41;2.97;;;2.67;;